createdAt,value
2023-12-04T00:01:49.515Z,14.80
2023-12-04T00:04:16.087Z,18.73
2023-12-04T00:06:43.050Z,16.73
2023-12-04T00:09:09.593Z,15.83
2023-12-04T00:11:36.172Z,16.77
2023-12-04T00:14:03.061Z,16.43
2023-12-04T00:16:29.533Z,16.43
2023-12-04T00:18:56.525Z,15.30
2023-12-04T00:21:23.096Z,16.77
2023-12-04T00:23:49.632Z,15.03
2023-12-04T00:26:16.581Z,14.57
2023-12-04T00:28:43.052Z,14.97
2023-12-04T00:31:09.862Z,14.60
2023-12-04T00:33:36.372Z,15.13
2023-12-04T00:36:02.959Z,15.77
2023-12-04T00:38:29.409Z,17.00
2023-12-04T00:40:56.742Z,17.23
2023-12-04T00:43:23.199Z,16.10
2023-12-04T00:45:49.910Z,15.73
2023-12-04T00:48:16.474Z,17.03
2023-12-04T00:50:43.075Z,15.80
2023-12-04T00:53:09.618Z,14.70
2023-12-04T00:55:36.099Z,14.03
2023-12-04T00:58:03.025Z,15.93
2023-12-04T01:00:29.537Z,14.33
2023-12-04T01:02:56.503Z,13.23
2023-12-04T01:05:23.076Z,15.10
2023-12-04T01:07:49.680Z,13.73
2023-12-04T01:10:16.172Z,14.67
2023-12-04T01:12:42.659Z,13.83
2023-12-04T01:15:10.532Z,13.23
2023-12-04T01:17:37.427Z,13.63
2023-12-04T01:20:04.182Z,13.80
2023-12-04T01:22:30.650Z,12.93
2023-12-04T01:24:57.967Z,12.90
2023-12-04T01:27:24.592Z,13.23
2023-12-04T01:29:51.057Z,12.10
2023-12-04T01:32:17.625Z,13.13
2023-12-04T01:34:44.927Z,13.23
2023-12-04T01:37:11.382Z,12.53
2023-12-04T01:39:38.139Z,13.57
2023-12-04T01:42:04.981Z,12.43
2023-12-04T01:44:31.416Z,12.30
2023-12-04T01:46:57.928Z,13.47
2023-12-04T01:49:26.126Z,12.53
2023-12-04T01:51:52.718Z,14.20
2023-12-04T01:54:19.952Z,12.57
2023-12-04T01:56:47.404Z,12.67
2023-12-04T01:59:14.395Z,12.07
2023-12-04T02:01:41.334Z,11.80
2023-12-04T02:04:08.065Z,12.13
2023-12-04T02:06:35.778Z,12.03
2023-12-04T02:09:02.685Z,13.33
2023-12-04T02:11:29.662Z,13.87
2023-12-04T02:13:56.683Z,13.77
2023-12-04T02:16:25.372Z,15.27
2023-12-04T02:18:52.831Z,16.03
2023-12-04T02:21:19.409Z,14.87
2023-12-04T02:23:50.814Z,15.53
2023-12-04T02:26:19.312Z,15.03
2023-12-04T02:28:52.961Z,14.37
2023-12-04T02:31:20.441Z,14.53
2023-12-04T02:33:48.083Z,13.13
2023-12-04T02:36:15.153Z,13.30
2023-12-04T02:38:42.333Z,14.37
2023-12-04T02:41:08.836Z,14.73
2023-12-04T02:43:35.281Z,13.23
2023-12-04T02:46:02.671Z,15.00
2023-12-04T02:48:29.317Z,13.70
2023-12-04T02:50:56.173Z,14.37
2023-12-04T02:53:22.659Z,14.57
2023-12-04T02:55:50.559Z,14.17
2023-12-04T02:58:17.050Z,13.50
2023-12-04T03:00:43.573Z,15.07
2023-12-04T03:03:10.062Z,15.03
2023-12-04T03:05:36.535Z,15.93
2023-12-04T03:08:03.282Z,16.43
2023-12-04T03:10:29.845Z,14.60
2023-12-04T03:12:57.520Z,13.80
2023-12-04T03:15:24.288Z,15.37
2023-12-04T03:17:50.866Z,13.37
2023-12-04T03:20:17.327Z,14.10
2023-12-04T03:22:43.844Z,13.30
2023-12-04T03:25:10.489Z,14.07
2023-12-04T03:27:37.374Z,12.77
2023-12-04T03:30:04.246Z,13.90
2023-12-04T03:32:31.141Z,15.17
2023-12-04T03:34:57.903Z,13.50
2023-12-04T03:37:25.084Z,15.63
2023-12-04T03:39:52.536Z,12.50
2023-12-04T03:42:19.068Z,12.70
2023-12-04T03:44:45.681Z,13.73
2023-12-04T03:47:12.626Z,13.30
2023-12-04T03:49:39.099Z,12.43
2023-12-04T03:52:06.057Z,13.27
2023-12-04T03:54:32.649Z,12.23
2023-12-04T03:56:59.080Z,11.73
2023-12-04T03:59:25.533Z,13.05
2023-12-04T04:01:52.046Z,12.20
2023-12-04T04:04:20.129Z,12.43
2023-12-04T04:06:46.686Z,12.63
2023-12-04T04:09:13.236Z,14.57
2023-12-04T04:11:39.700Z,12.37
2023-12-04T04:14:06.128Z,14.50
2023-12-04T04:16:32.974Z,11.97
2023-12-04T04:18:59.459Z,11.53
2023-12-04T04:21:25.959Z,12.00
2023-12-04T04:23:53.225Z,11.40
2023-12-04T04:26:19.648Z,11.47
2023-12-04T04:28:46.137Z,11.67
2023-12-04T04:31:12.669Z,11.95
2023-12-04T04:33:39.363Z,11.27
2023-12-04T04:36:06.176Z,12.67
2023-12-04T04:38:32.590Z,12.02
2023-12-04T04:40:59.114Z,11.98
2023-12-04T04:43:25.707Z,11.97
2023-12-04T04:45:52.929Z,12.15
2023-12-04T04:48:20.852Z,11.97
2023-12-04T04:50:47.307Z,11.60
2023-12-04T04:53:13.762Z,11.48
2023-12-04T04:55:47.616Z,11.20
2023-12-04T04:58:17.002Z,11.43
2023-12-04T05:00:44.485Z,11.63
2023-12-04T05:03:10.950Z,12.00
2023-12-04T05:05:37.429Z,12.83
2023-12-04T05:08:04.158Z,10.77
2023-12-04T05:10:30.611Z,12.52
2023-12-04T05:12:57.149Z,11.68
2023-12-04T05:15:23.661Z,11.55
2023-12-04T05:17:50.223Z,14.13
2023-12-04T05:20:16.717Z,12.20
2023-12-04T05:22:43.267Z,12.45
2023-12-04T05:25:09.851Z,14.30
2023-12-04T05:27:36.347Z,12.20
2023-12-04T05:30:03.216Z,11.60
2023-12-04T05:32:29.835Z,11.80
2023-12-04T05:34:56.466Z,12.10
2023-12-04T05:37:22.891Z,11.70
2023-12-04T05:39:49.401Z,12.00
2023-12-04T05:42:15.927Z,11.38
2023-12-04T05:44:42.350Z,11.70
2023-12-04T05:47:09.323Z,14.55
2023-12-04T05:49:36.141Z,12.02
2023-12-04T05:52:02.776Z,11.55
2023-12-04T05:54:29.350Z,11.60
2023-12-04T05:56:55.820Z,11.98
2023-12-04T05:59:22.292Z,10.43
2023-12-04T06:01:49.327Z,11.68
2023-12-04T06:04:15.893Z,11.37
2023-12-04T06:06:42.520Z,11.30
2023-12-04T06:09:08.972Z,11.30
2023-12-04T06:11:35.719Z,11.80
2023-12-04T06:14:03.378Z,12.82
2023-12-04T06:16:30.418Z,11.38
2023-12-04T06:18:58.060Z,11.30
2023-12-04T06:21:24.673Z,12.45
2023-12-04T06:23:51.638Z,11.10
2023-12-04T06:26:18.501Z,11.48
2023-12-04T06:28:45.959Z,11.65
2023-12-04T06:31:13.200Z,11.45
2023-12-04T06:33:40.046Z,10.90
2023-12-04T06:36:08.574Z,10.60
2023-12-04T06:38:39.242Z,10.95
2023-12-04T06:41:06.426Z,12.60
2023-12-04T06:43:34.020Z,11.10
2023-12-04T06:46:00.904Z,10.82
2023-12-04T06:48:27.847Z,11.55
2023-12-04T06:50:54.433Z,10.95
2023-12-04T06:53:20.854Z,11.55
2023-12-04T06:55:47.343Z,10.70
2023-12-04T06:58:14.236Z,12.68
2023-12-04T07:00:41.042Z,11.00
2023-12-04T07:03:07.887Z,10.48
2023-12-04T07:05:34.460Z,11.48
2023-12-04T07:08:01.045Z,14.23
2023-12-04T07:10:27.511Z,11.80
2023-12-04T07:12:53.984Z,12.05
2023-12-04T07:15:20.452Z,10.85
2023-12-04T07:17:48.085Z,12.13
2023-12-04T07:20:14.650Z,12.95
2023-12-04T07:22:41.151Z,15.02
2023-12-04T07:25:08.646Z,15.47
2023-12-04T07:27:35.751Z,15.50
2023-12-04T07:30:03.423Z,15.10
2023-12-04T07:32:29.933Z,13.27
2023-12-04T07:34:56.461Z,13.38
2023-12-04T07:37:22.989Z,15.88
2023-12-04T07:39:49.542Z,12.45
2023-12-04T07:42:16.047Z,13.07
2023-12-04T07:44:42.806Z,12.82
2023-12-04T07:47:09.357Z,12.65
2023-12-04T07:49:35.972Z,13.70
2023-12-04T07:52:02.751Z,12.77
2023-12-04T07:54:30.654Z,14.13
2023-12-04T07:56:58.178Z,12.30
2023-12-04T07:59:25.089Z,12.98
2023-12-04T08:01:51.557Z,11.82
2023-12-04T08:04:18.086Z,11.43
2023-12-04T08:06:44.984Z,11.95
2023-12-04T08:09:11.498Z,12.45
2023-12-04T08:11:38.182Z,12.48
2023-12-04T08:14:05.295Z,12.25
2023-12-04T08:16:31.789Z,12.45
2023-12-04T08:18:58.534Z,12.68
2023-12-04T08:21:25.507Z,13.05
2023-12-04T08:23:52.299Z,18.75
2023-12-04T08:26:26.587Z,11.70
2023-12-04T08:28:53.482Z,11.50
2023-12-04T08:31:20.224Z,11.02
2023-12-04T08:33:47.068Z,11.52
2023-12-04T08:36:13.680Z,10.60
2023-12-04T08:38:40.222Z,10.25
2023-12-04T08:41:07.129Z,11.50
2023-12-04T08:43:33.733Z,11.48
2023-12-04T08:46:01.520Z,11.48
2023-12-04T08:48:28.349Z,11.65
2023-12-04T08:50:55.565Z,13.18
2023-12-04T08:53:22.369Z,11.13
2023-12-04T08:55:49.220Z,11.80
2023-12-04T08:58:15.849Z,11.90
2023-12-04T09:00:44.396Z,11.25
2023-12-04T09:03:18.445Z,11.23
2023-12-04T09:05:51.652Z,11.70
2023-12-04T09:08:31.748Z,12.27
2023-12-04T09:11:18.114Z,11.90
2023-12-04T09:13:49.164Z,12.18
2023-12-04T09:16:15.626Z,12.52
2023-12-04T09:18:42.392Z,11.98
2023-12-04T09:21:09.419Z,11.77
2023-12-04T09:23:37.427Z,12.02
2023-12-04T09:26:04.133Z,12.15
2023-12-04T09:28:30.659Z,13.38
2023-12-04T09:30:57.726Z,14.57
2023-12-04T09:33:24.402Z,12.15
2023-12-04T09:35:51.317Z,12.77
2023-12-04T09:38:17.840Z,13.88
2023-12-04T09:40:44.548Z,14.05
2023-12-04T09:43:11.282Z,13.27
2023-12-04T09:45:39.815Z,13.32
2023-12-04T09:48:07.196Z,12.43
2023-12-04T09:50:33.915Z,14.00
2023-12-04T09:53:02.127Z,14.50
2023-12-04T09:55:28.585Z,13.73
2023-12-04T09:57:55.296Z,14.57
2023-12-04T10:00:22.933Z,14.20
2023-12-04T10:02:49.919Z,13.18
2023-12-04T10:05:16.512Z,14.80
2023-12-04T10:07:43.029Z,16.90
2023-12-04T10:10:10.008Z,13.32
2023-12-04T10:12:37.137Z,13.77
2023-12-04T10:15:12.020Z,14.80
2023-12-04T10:17:44.562Z,15.57
2023-12-04T10:20:19.362Z,15.50
2023-12-04T10:23:00.483Z,13.68
2023-12-04T10:25:29.849Z,15.07
2023-12-04T10:28:11.917Z,13.82
2023-12-04T10:30:38.654Z,14.23
2023-12-04T10:33:06.348Z,13.88
2023-12-04T10:35:37.336Z,13.70
2023-12-04T10:38:04.878Z,17.20
2023-12-04T10:40:36.895Z,13.15
2023-12-04T10:43:19.775Z,13.32
2023-12-04T10:45:47.809Z,12.52
2023-12-04T10:48:16.413Z,12.10
2023-12-04T10:50:45.160Z,15.05
2023-12-04T10:53:13.577Z,13.65
2023-12-04T10:55:41.157Z,12.82
2023-12-04T10:58:10.161Z,12.95
2023-12-04T11:00:39.721Z,11.98
2023-12-04T11:03:09.805Z,13.48
2023-12-04T11:05:39.483Z,13.13
2023-12-04T11:08:17.281Z,14.27
2023-12-04T11:10:51.518Z,13.93
2023-12-04T11:13:39.115Z,15.45
2023-12-04T11:16:08.838Z,15.57
2023-12-04T13:58:48.140Z,13.75
2023-12-04T14:01:16.356Z,12.85
2023-12-04T14:03:46.208Z,10.80
2023-12-04T14:06:14.099Z,11.32
2023-12-04T14:08:41.608Z,11.60
2023-12-04T19:44:29.071Z,30.40
2023-12-04T19:46:56.338Z,30.75
2023-12-04T19:49:22.966Z,30.70
2023-12-04T19:51:49.888Z,36.22
2023-12-04T19:54:16.486Z,37.60
2023-12-04T19:56:44.397Z,25.35
2023-12-04T19:59:12.290Z,29.73
2023-12-04T20:01:38.923Z,30.70
2023-12-04T20:06:32.645Z,25.02
2023-12-04T20:08:59.731Z,34.00
2023-12-04T20:11:26.756Z,22.00
2023-12-04T20:13:53.931Z,24.40
2023-12-04T20:16:21.341Z,32.60
2023-12-04T20:18:47.941Z,34.03
2023-12-04T20:21:15.860Z,23.67
2023-12-04T20:23:42.364Z,28.52
2023-12-04T20:26:08.977Z,32.33
2023-12-04T20:28:35.489Z,21.05
2023-12-04T20:31:01.934Z,23.08
2023-12-04T20:33:28.562Z,23.08
2023-12-04T20:35:55.640Z,16.88
2023-12-04T20:38:22.104Z,20.98
2023-12-04T20:40:49.524Z,23.85
2023-12-04T20:43:16.433Z,24.15
2023-12-04T20:45:44.708Z,29.33
2023-12-04T20:48:12.785Z,23.77
2023-12-04T20:50:42.311Z,17.70
2023-12-04T20:53:08.865Z,20.92
2023-12-04T20:55:36.325Z,18.48
2023-12-04T20:58:06.576Z,23.45
2023-12-04T21:00:35.236Z,20.98
2023-12-04T21:03:02.668Z,18.23
2023-12-04T21:05:29.483Z,24.63
2023-12-04T21:07:56.050Z,14.13
2023-12-04T21:10:23.212Z,16.35
2023-12-04T21:12:49.705Z,15.98
2023-12-04T21:15:16.640Z,15.52
2023-12-04T21:17:43.213Z,18.10
2023-12-04T21:20:10.863Z,17.85
2023-12-04T21:22:37.574Z,17.67
2023-12-04T21:25:04.588Z,16.17
2023-12-04T21:27:32.556Z,14.98
2023-12-04T21:29:59.446Z,14.65
2023-12-04T21:32:25.978Z,14.98
2023-12-04T21:34:52.562Z,12.50
2023-12-04T21:37:19.571Z,13.15
2023-12-04T21:39:48.505Z,14.20
2023-12-04T21:42:15.542Z,15.55
2023-12-04T21:44:42.035Z,14.82
2023-12-04T21:47:08.630Z,13.07
2023-12-04T21:49:35.150Z,13.30
2023-12-04T21:52:01.860Z,15.00
2023-12-04T21:54:28.386Z,15.95
2023-12-04T21:56:55.629Z,12.30
2023-12-04T21:59:29.302Z,14.43
2023-12-04T22:01:58.673Z,11.52
2023-12-04T22:04:25.419Z,9.35
2023-12-04T22:06:52.136Z,9.15
2023-12-04T22:09:18.699Z,9.30
2023-12-04T22:11:45.194Z,8.75
2023-12-04T22:14:11.621Z,7.55
2023-12-04T22:16:38.096Z,8.15
2023-12-04T22:19:04.993Z,8.18
2023-12-04T22:21:32.572Z,9.27
2023-12-04T22:23:59.036Z,7.85
2023-12-04T22:26:25.545Z,9.98
2023-12-04T22:28:53.199Z,6.47
2023-12-04T22:31:19.713Z,7.75
2023-12-04T22:33:46.359Z,6.85
2023-12-04T22:36:13.070Z,5.95
2023-12-04T22:38:41.312Z,8.50
2023-12-04T22:41:07.944Z,10.63
2023-12-04T22:43:34.426Z,9.13
2023-12-04T22:46:00.981Z,6.30
2023-12-04T22:48:27.693Z,5.18
2023-12-04T22:50:54.909Z,4.40
2023-12-04T22:53:21.909Z,4.82
2023-12-04T22:55:48.838Z,4.05
2023-12-04T22:58:15.378Z,4.22
2023-12-04T23:00:43.014Z,4.65
2023-12-04T23:03:09.656Z,4.45
2023-12-04T23:05:36.425Z,4.47
2023-12-04T23:08:03.335Z,5.13
2023-12-04T23:10:29.865Z,4.07
2023-12-04T23:12:57.773Z,3.60
2023-12-04T23:15:24.823Z,4.32
2023-12-04T23:17:51.451Z,3.70
2023-12-04T23:20:18.807Z,3.30
2023-12-04T23:22:45.420Z,4.00
2023-12-04T23:25:12.820Z,3.70
2023-12-04T23:27:39.307Z,3.42
2023-12-04T23:30:06.785Z,4.35
2023-12-04T23:32:33.685Z,3.65
2023-12-04T23:35:00.230Z,3.38
2023-12-04T23:37:26.764Z,4.03
2023-12-04T23:39:53.354Z,4.03
2023-12-04T23:42:20.043Z,3.83
2023-12-04T23:44:46.672Z,3.40
2023-12-04T23:47:13.152Z,3.58
2023-12-04T23:49:39.661Z,3.72
2023-12-04T23:52:06.439Z,3.40
2023-12-04T23:54:32.894Z,3.47
2023-12-04T23:57:00.736Z,3.67
2023-12-04T23:59:27.432Z,3.60
